George, IA

2:10 PM CST on February 23, 2018 (GMT -0600)
Farm | | Change Station
Active Advisory: Winter Storm Watch

Elev 1394 ft 43.20 °N, 96.16 °W | Updated 22 seconds ago

Mostly Cloudy
Mostly Cloudy
27.3 °F
Feels Like 27 °F
N
3.0
Wind Variable Wind from West

Today
High -- | Low -- °F
--% Chance of Precip.
Yesterday
High -- | Low -- °F
Precip. -- in
Pressure 30.26 in
Visibility 9.0 miles
Clouds Overcast 900 ft
Windchill 27 °F
Dew Point 22 °F
Humidity 81%
Rainfall 0.00 in
Snow Depth Not available.
7:09 AM 6:05 PM
First Quarter, 56% visible
METAR KSHL 231955Z AUTO 28005KT 9SM OVC009 M05/M06 A3026 RMK AO2
Pressure 30.26 in
Visibility 9.0 miles
Clouds Overcast 900 ft
Windchill 27 °F
Dew Point 22 °F
Humidity 81%
Rainfall 0.00 in
Snow Depth Not available.
7:09 AM 6:05 PM
First Quarter, 56% visible
METAR KSHL 231955Z AUTO 28005KT 9SM OVC009 M05/M06 A3026 RMK AO2

Get Your Daily Forecast Email!

Thanks for signing up!

Be on the lookout for a verification email in your inbox.

You'll start receiving severe weather alerts in your inbox..

×

10-Day Weather Forecast

Almanac

Astronomy

Feb. 23, 2018 Rise Set
Actual Time
Civil Twilight
Nautical Twilight
Astronomical Twilight
Moon
Length of Visible Light
Length of Day
Tomorrow will be .
, % of the Moon is Illuminated

Today's Extremes

State Highs State Lows

Community

WunderPhotos

Category 6

Welcome to Category 6. This is the collective home for Weather Underground's featured writeups by Dr. Jeff Masters (right), Bob Henson (left), Chris Burt, and other regular contributors.

Nearby

Air Quality

  Air Quality AQ Index Pollutant
Not available.

Snow Depth

Station Depth Elevation

Earthquake Activity

City Distance Mag. Time & Date
Minimum magnitude displayed is 2.5.

Coastal Water Temperatures

Place Temperature

Stations

Nearby Weather Stations

Station Location Temp. Windchill Dew Point Humidity Wind Precip. Elev Updated Type
                   

Watches & Warnings

Winter Storm Watch
Issued: 4:09 AM CST Feb. 23, 2018 – National Weather Service

... Winter Storm Watch remains in effect from Saturday morning
through Saturday evening...

* what... total snow accumulations of 5 to 7 inches are possible.

* Where... portions southeast South Dakota, northeast Nebraska,
northwest Iowa and southwest Minnesota.

* When... from Saturday morning through Saturday evening.

* Additional details... plan on difficult travel conditions.
Significant reductions in visibility are possible. Snow may be
heavy at times. Locally higher amounts if they occur will be
refined in future forecasts.

Precautionary/preparedness actions...

A Winter Storm Watch means there is potential for significant
snow, sleet or ice accumulations that may impact travel. Continue
to monitor the latest forecasts.